sensor_id;sensor_type;location;lat;lon;timestamp;temperature;humidity
31369;DHT22;18004;48.416;10.066;2023-09-07T00:00:17;16.70;99.90
31369;DHT22;18004;48.416;10.066;2023-09-07T00:02:43;16.70;99.90
31369;DHT22;18004;48.416;10.066;2023-09-07T00:05:09;16.70;99.90
31369;DHT22;18004;48.416;10.066;2023-09-07T00:07:35;16.70;99.90
31369;DHT22;18004;48.416;10.066;2023-09-07T00:10:02;16.70;99.90
31369;DHT22;18004;48.416;10.066;2023-09-07T00:12:28;16.70;99.90
31369;DHT22;18004;48.416;10.066;2023-09-07T00:14:54;16.70;99.90
31369;DHT22;18004;48.416;10.066;2023-09-07T00:17:21;16.70;99.90
31369;DHT22;18004;48.416;10.066;2023-09-07T00:19:46;16.70;99.90
31369;DHT22;18004;48.416;10.066;2023-09-07T00:22:15;16.70;99.90
31369;DHT22;18004;48.416;10.066;2023-09-07T00:24:40;16.70;99.90
31369;DHT22;18004;48.416;10.066;2023-09-07T00:27:06;16.60;99.90
31369;DHT22;18004;48.416;10.066;2023-09-07T00:29:36;16.60;99.90
31369;DHT22;18004;48.416;10.066;2023-09-07T00:32:02;16.60;99.90
31369;DHT22;18004;48.416;10.066;2023-09-07T00:34:27;16.60;99.90
31369;DHT22;18004;48.416;10.066;2023-09-07T00:36:53;16.50;99.90
31369;DHT22;18004;48.416;10.066;2023-09-07T00:39:19;16.50;99.90
31369;DHT22;18004;48.416;10.066;2023-09-07T00:41:45;16.50;99.90
31369;DHT22;18004;48.416;10.066;2023-09-07T00:44:10;16.50;99.90
31369;DHT22;18004;48.416;10.066;2023-09-07T00:46:36;16.50;99.90
31369;DHT22;18004;48.416;10.066;2023-09-07T00:49:02;16.50;99.90
31369;DHT22;18004;48.416;10.066;2023-09-07T00:51:30;16.50;99.90
31369;DHT22;18004;48.416;10.066;2023-09-07T00:53:56;16.50;99.90
31369;DHT22;18004;48.416;10.066;2023-09-07T00:56:22;16.50;99.90
31369;DHT22;18004;48.416;10.066;2023-09-07T00:58:50;16.50;99.90
31369;DHT22;18004;48.416;10.066;2023-09-07T01:01:16;16.50;99.90
31369;DHT22;18004;48.416;10.066;2023-09-07T01:03:42;16.50;99.90
31369;DHT22;18004;48.416;10.066;2023-09-07T01:06:15;16.50;99.90
31369;DHT22;18004;48.416;10.066;2023-09-07T01:08:54;16.40;99.90
31369;DHT22;18004;48.416;10.066;2023-09-07T01:11:23;16.40;99.90
31369;DHT22;18004;48.416;10.066;2023-09-07T01:13:49;16.40;99.90
31369;DHT22;18004;48.416;10.066;2023-09-07T01:16:16;16.30;99.90
31369;DHT22;18004;48.416;10.066;2023-09-07T01:18:42;16.30;99.90
31369;DHT22;18004;48.416;10.066;2023-09-07T01:21:09;16.30;99.90
31369;DHT22;18004;48.416;10.066;2023-09-07T01:23:39;16.20;99.90
31369;DHT22;18004;48.416;10.066;2023-09-07T01:26:07;16.20;99.90
31369;DHT22;18004;48.416;10.066;2023-09-07T01:28:34;16.20;99.90
31369;DHT22;18004;48.416;10.066;2023-09-07T01:31:00;16.20;99.90
31369;DHT22;18004;48.416;10.066;2023-09-07T01:33:27;16.20;99.90
31369;DHT22;18004;48.416;10.066;2023-09-07T01:35:53;16.10;99.90
31369;DHT22;18004;48.416;10.066;2023-09-07T01:38:18;16.00;99.90
31369;DHT22;18004;48.416;10.066;2023-09-07T01:40:44;16.00;99.90
31369;DHT22;18004;48.416;10.066;2023-09-07T01:43:10;16.00;99.90
31369;DHT22;18004;48.416;10.066;2023-09-07T01:45:36;16.00;99.90
31369;DHT22;18004;48.416;10.066;2023-09-07T01:48:02;16.00;99.90
31369;DHT22;18004;48.416;10.066;2023-09-07T01:50:28;16.00;99.90
31369;DHT22;18004;48.416;10.066;2023-09-07T01:52:54;16.00;99.90
31369;DHT22;18004;48.416;10.066;2023-09-07T01:55:20;16.00;99.90
31369;DHT22;18004;48.416;10.066;2023-09-07T01:57:46;16.00;99.90
31369;DHT22;18004;48.416;10.066;2023-09-07T02:00:12;16.00;99.90
31369;DHT22;18004;48.416;10.066;2023-09-07T02:02:38;16.00;99.90
31369;DHT22;18004;48.416;10.066;2023-09-07T02:05:04;16.00;99.90
31369;DHT22;18004;48.416;10.066;2023-09-07T02:07:30;15.90;99.90
31369;DHT22;18004;48.416;10.066;2023-09-07T02:09:55;15.80;99.90
31369;DHT22;18004;48.416;10.066;2023-09-07T02:12:21;15.80;99.90
31369;DHT22;18004;48.416;10.066;2023-09-07T02:14:47;15.70;99.90
31369;DHT22;18004;48.416;10.066;2023-09-07T02:17:13;15.70;99.90
31369;DHT22;18004;48.416;10.066;2023-09-07T02:19:43;15.70;99.90
31369;DHT22;18004;48.416;10.066;2023-09-07T02:22:09;15.50;99.90
31369;DHT22;18004;48.416;10.066;2023-09-07T02:24:35;15.40;99.90
31369;DHT22;18004;48.416;10.066;2023-09-07T02:27:01;15.40;99.90
31369;DHT22;18004;48.416;10.066;2023-09-07T02:29:27;15.30;99.90
31369;DHT22;18004;48.416;10.066;2023-09-07T02:31:52;15.30;99.90
31369;DHT22;18004;48.416;10.066;2023-09-07T02:34:18;15.20;99.90
31369;DHT22;18004;48.416;10.066;2023-09-07T02:36:44;15.20;99.90
31369;DHT22;18004;48.416;10.066;2023-09-07T02:39:10;15.10;99.90
31369;DHT22;18004;48.416;10.066;2023-09-07T02:41:37;15.10;99.90
31369;DHT22;18004;48.416;10.066;2023-09-07T02:44:04;15.10;99.90
31369;DHT22;18004;48.416;10.066;2023-09-07T02:46:30;15.10;99.90
31369;DHT22;18004;48.416;10.066;2023-09-07T02:48:57;15.00;99.90
31369;DHT22;18004;48.416;10.066;2023-09-07T02:51:26;15.00;99.90
31369;DHT22;18004;48.416;10.066;2023-09-07T02:53:56;15.00;99.90
31369;DHT22;18004;48.416;10.066;2023-09-07T02:56:21;15.10;99.90
31369;DHT22;18004;48.416;10.066;2023-09-07T02:58:47;15.00;99.90
31369;DHT22;18004;48.416;10.066;2023-09-07T03:01:13;15.00;99.90
31369;DHT22;18004;48.416;10.066;2023-09-07T03:03:39;15.00;99.90
31369;DHT22;18004;48.416;10.066;2023-09-07T03:06:13;15.00;99.90
31369;DHT22;18004;48.416;10.066;2023-09-07T03:08:40;15.00;99.90
31369;DHT22;18004;48.416;10.066;2023-09-07T03:11:08;15.00;99.90
31369;DHT22;18004;48.416;10.066;2023-09-07T03:13:34;15.00;99.90
31369;DHT22;18004;48.416;10.066;2023-09-07T03:16:01;15.00;99.90
31369;DHT22;18004;48.416;10.066;2023-09-07T03:18:28;15.00;99.90
31369;DHT22;18004;48.416;10.066;2023-09-07T03:20:55;15.00;99.90
31369;DHT22;18004;48.416;10.066;2023-09-07T03:23:22;15.00;99.90
31369;DHT22;18004;48.416;10.066;2023-09-07T03:25:48;15.00;99.90
31369;DHT22;18004;48.416;10.066;2023-09-07T03:28:13;15.10;99.90
31369;DHT22;18004;48.416;10.066;2023-09-07T03:30:39;15.10;99.90
31369;DHT22;18004;48.416;10.066;2023-09-07T03:33:06;15.10;99.90
31369;DHT22;18004;48.416;10.066;2023-09-07T03:35:32;15.10;99.90
31369;DHT22;18004;48.416;10.066;2023-09-07T03:37:58;15.20;99.90
31369;DHT22;18004;48.416;10.066;2023-09-07T03:40:23;15.20;99.90
31369;DHT22;18004;48.416;10.066;2023-09-07T03:42:49;15.20;99.90
31369;DHT22;18004;48.416;10.066;2023-09-07T03:45:15;15.20;99.90
31369;DHT22;18004;48.416;10.066;2023-09-07T03:47:42;15.20;99.90
31369;DHT22;18004;48.416;10.066;2023-09-07T03:50:08;15.20;99.90
31369;DHT22;18004;48.416;10.066;2023-09-07T03:52:34;15.20;99.90
31369;DHT22;18004;48.416;10.066;2023-09-07T03:55:00;15.20;99.90
31369;DHT22;18004;48.416;10.066;2023-09-07T03:57:27;15.20;99.90
31369;DHT22;18004;48.416;10.066;2023-09-07T03:59:53;15.20;99.90
31369;DHT22;18004;48.416;10.066;2023-09-07T04:02:21;15.10;99.90
31369;DHT22;18004;48.416;10.066;2023-09-07T04:04:54;15.10;99.90
31369;DHT22;18004;48.416;10.066;2023-09-07T04:07:21;15.00;99.90
31369;DHT22;18004;48.416;10.066;2023-09-07T04:09:46;15.00;99.90
31369;DHT22;18004;48.416;10.066;2023-09-07T04:12:12;14.90;99.90
31369;DHT22;18004;48.416;10.066;2023-09-07T04:14:38;14.80;99.90
31369;DHT22;18004;48.416;10.066;2023-09-07T04:17:05;14.70;99.90
31369;DHT22;18004;48.416;10.066;2023-09-07T04:19:30;14.60;99.90
31369;DHT22;18004;48.416;10.066;2023-09-07T04:22:00;14.60;99.90
31369;DHT22;18004;48.416;10.066;2023-09-07T04:24:26;14.50;99.90
31369;DHT22;18004;48.416;10.066;2023-09-07T04:26:53;14.50;99.90
31369;DHT22;18004;48.416;10.066;2023-09-07T04:29:23;14.50;99.90
31369;DHT22;18004;48.416;10.066;2023-09-07T04:31:49;14.50;99.90
31369;DHT22;18004;48.416;10.066;2023-09-07T04:34:14;14.50;99.90
31369;DHT22;18004;48.416;10.066;2023-09-07T04:36:40;14.50;99.90
31369;DHT22;18004;48.416;10.066;2023-09-07T04:39:06;14.40;99.90
31369;DHT22;18004;48.416;10.066;2023-09-07T04:41:31;14.50;99.90
31369;DHT22;18004;48.416;10.066;2023-09-07T04:43:57;14.50;99.90
31369;DHT22;18004;48.416;10.066;2023-09-07T04:46:23;14.60;99.90
31369;DHT22;18004;48.416;10.066;2023-09-07T04:48:49;14.60;99.90
31369;DHT22;18004;48.416;10.066;2023-09-07T04:51:15;14.70;99.90
31369;DHT22;18004;48.416;10.066;2023-09-07T04:53:41;14.70;99.90
31369;DHT22;18004;48.416;10.066;2023-09-07T04:56:07;14.80;99.90
31369;DHT22;18004;48.416;10.066;2023-09-07T04:58:36;14.80;99.90
31369;DHT22;18004;48.416;10.066;2023-09-07T05:01:09;14.80;99.90
31369;DHT22;18004;48.416;10.066;2023-09-07T05:03:35;14.60;99.90
31369;DHT22;18004;48.416;10.066;2023-09-07T05:06:02;14.60;99.90
31369;DHT22;18004;48.416;10.066;2023-09-07T05:08:31;14.60;99.90
31369;DHT22;18004;48.416;10.066;2023-09-07T05:10:59;14.70;99.90
31369;DHT22;18004;48.416;10.066;2023-09-07T05:13:25;14.60;99.90
31369;DHT22;18004;48.416;10.066;2023-09-07T05:15:52;14.60;99.90
31369;DHT22;18004;48.416;10.066;2023-09-07T05:18:19;14.50;99.90
31369;DHT22;18004;48.416;10.066;2023-09-07T05:20:45;14.60;99.90
31369;DHT22;18004;48.416;10.066;2023-09-07T05:23:15;14.60;99.90
31369;DHT22;18004;48.416;10.066;2023-09-07T05:25:49;14.70;99.90
31369;DHT22;18004;48.416;10.066;2023-09-07T05:28:16;14.60;99.90
31369;DHT22;18004;48.416;10.066;2023-09-07T05:30:42;14.70;99.90
31369;DHT22;18004;48.416;10.066;2023-09-07T05:33:12;14.60;99.90
31369;DHT22;18004;48.416;10.066;2023-09-07T05:35:38;14.70;99.90
31369;DHT22;18004;48.416;10.066;2023-09-07T05:38:05;14.70;99.90
31369;DHT22;18004;48.416;10.066;2023-09-07T05:40:35;14.70;99.90
31369;DHT22;18004;48.416;10.066;2023-09-07T05:43:01;14.60;99.90
31369;DHT22;18004;48.416;10.066;2023-09-07T05:45:30;14.70;99.90
31369;DHT22;18004;48.416;10.066;2023-09-07T05:47:57;14.70;99.90
31369;DHT22;18004;48.416;10.066;2023-09-07T05:50:23;14.70;99.90
31369;DHT22;18004;48.416;10.066;2023-09-07T05:52:49;14.70;99.90
31369;DHT22;18004;48.416;10.066;2023-09-07T05:55:15;14.80;99.90
31369;DHT22;18004;48.416;10.066;2023-09-07T05:57:41;14.80;99.90
31369;DHT22;18004;48.416;10.066;2023-09-07T06:00:07;14.90;99.90
31369;DHT22;18004;48.416;10.066;2023-09-07T06:02:33;14.90;99.90
31369;DHT22;18004;48.416;10.066;2023-09-07T06:04:59;15.00;99.90
31369;DHT22;18004;48.416;10.066;2023-09-07T06:07:25;15.00;99.90
31369;DHT22;18004;48.416;10.066;2023-09-07T06:09:50;15.10;99.90
31369;DHT22;18004;48.416;10.066;2023-09-07T06:12:16;15.20;99.90
31369;DHT22;18004;48.416;10.066;2023-09-07T06:14:42;15.20;99.90
31369;DHT22;18004;48.416;10.066;2023-09-07T06:17:08;15.20;99.90
31369;DHT22;18004;48.416;10.066;2023-09-07T06:19:33;15.30;99.90
31369;DHT22;18004;48.416;10.066;2023-09-07T06:22:00;15.30;99.90
31369;DHT22;18004;48.416;10.066;2023-09-07T06:24:25;15.40;99.90
31369;DHT22;18004;48.416;10.066;2023-09-07T06:26:51;15.40;99.90
31369;DHT22;18004;48.416;10.066;2023-09-07T06:29:17;15.50;99.90
31369;DHT22;18004;48.416;10.066;2023-09-07T06:31:42;15.60;99.90
31369;DHT22;18004;48.416;10.066;2023-09-07T06:34:08;15.60;99.90
31369;DHT22;18004;48.416;10.066;2023-09-07T06:36:34;15.70;99.90
31369;DHT22;18004;48.416;10.066;2023-09-07T06:39:00;15.80;99.90
31369;DHT22;18004;48.416;10.066;2023-09-07T06:41:25;15.80;99.90
31369;DHT22;18004;48.416;10.066;2023-09-07T06:43:52;15.90;99.90
31369;DHT22;18004;48.416;10.066;2023-09-07T06:46:17;15.90;99.90
31369;DHT22;18004;48.416;10.066;2023-09-07T06:48:43;16.00;99.90
31369;DHT22;18004;48.416;10.066;2023-09-07T06:51:09;16.10;99.90
31369;DHT22;18004;48.416;10.066;2023-09-07T06:53:35;16.10;99.90
31369;DHT22;18004;48.416;10.066;2023-09-07T06:56:01;16.20;99.90
31369;DHT22;18004;48.416;10.066;2023-09-07T06:58:28;16.30;99.90
31369;DHT22;18004;48.416;10.066;2023-09-07T07:00:58;16.30;99.90
31369;DHT22;18004;48.416;10.066;2023-09-07T07:03:28;16.40;99.90
31369;DHT22;18004;48.416;10.066;2023-09-07T07:05:54;16.50;99.90
31369;DHT22;18004;48.416;10.066;2023-09-07T07:08:21;16.50;99.90
31369;DHT22;18004;48.416;10.066;2023-09-07T07:10:46;16.60;99.90
31369;DHT22;18004;48.416;10.066;2023-09-07T07:13:12;16.70;99.90
31369;DHT22;18004;48.416;10.066;2023-09-07T07:15:38;16.80;99.90
31369;DHT22;18004;48.416;10.066;2023-09-07T07:18:04;17.00;99.90
31369;DHT22;18004;48.416;10.066;2023-09-07T07:20:35;17.10;99.90
31369;DHT22;18004;48.416;10.066;2023-09-07T07:23:01;17.10;99.90
31369;DHT22;18004;48.416;10.066;2023-09-07T07:25:29;17.10;99.90
31369;DHT22;18004;48.416;10.066;2023-09-07T07:27:56;17.20;99.90
31369;DHT22;18004;48.416;10.066;2023-09-07T07:30:22;17.30;99.90
31369;DHT22;18004;48.416;10.066;2023-09-07T07:32:48;17.40;99.90
31369;DHT22;18004;48.416;10.066;2023-09-07T07:35:16;17.50;99.90
31369;DHT22;18004;48.416;10.066;2023-09-07T07:37:42;17.60;99.90
31369;DHT22;18004;48.416;10.066;2023-09-07T07:40:08;17.70;99.90
31369;DHT22;18004;48.416;10.066;2023-09-07T07:42:34;17.80;99.90
31369;DHT22;18004;48.416;10.066;2023-09-07T07:44:59;17.90;99.90
31369;DHT22;18004;48.416;10.066;2023-09-07T07:47:25;18.10;99.90
31369;DHT22;18004;48.416;10.066;2023-09-07T07:49:52;18.40;99.90
31369;DHT22;18004;48.416;10.066;2023-09-07T07:52:17;18.60;99.90
31369;DHT22;18004;48.416;10.066;2023-09-07T07:54:43;18.70;99.90
31369;DHT22;18004;48.416;10.066;2023-09-07T07:57:09;18.70;99.90
31369;DHT22;18004;48.416;10.066;2023-09-07T07:59:34;18.80;99.90
31369;DHT22;18004;48.416;10.066;2023-09-07T08:02:01;18.80;99.90
31369;DHT22;18004;48.416;10.066;2023-09-07T08:04:26;18.90;99.90
31369;DHT22;18004;48.416;10.066;2023-09-07T08:06:52;18.90;99.90
31369;DHT22;18004;48.416;10.066;2023-09-07T08:09:22;18.80;99.90
31369;DHT22;18004;48.416;10.066;2023-09-07T08:11:48;18.80;99.90
31369;DHT22;18004;48.416;10.066;2023-09-07T08:14:14;18.90;99.90
31369;DHT22;18004;48.416;10.066;2023-09-07T08:16:40;18.60;99.90
31369;DHT22;18004;48.416;10.066;2023-09-07T08:19:08;18.80;99.90
31369;DHT22;18004;48.416;10.066;2023-09-07T08:21:33;19.00;99.90
31369;DHT22;18004;48.416;10.066;2023-09-07T08:24:00;19.40;99.90
31369;DHT22;18004;48.416;10.066;2023-09-07T08:26:28;19.60;99.90
31369;DHT22;18004;48.416;10.066;2023-09-07T08:28:54;19.40;99.90
31369;DHT22;18004;48.416;10.066;2023-09-07T08:31:19;19.50;99.90
31369;DHT22;18004;48.416;10.066;2023-09-07T08:33:48;19.80;99.90
31369;DHT22;18004;48.416;10.066;2023-09-07T08:36:16;20.20;99.90
31369;DHT22;18004;48.416;10.066;2023-09-07T08:38:47;20.20;99.90
31369;DHT22;18004;48.416;10.066;2023-09-07T08:41:14;20.00;99.90
31369;DHT22;18004;48.416;10.066;2023-09-07T08:43:45;20.10;99.90
31369;DHT22;18004;48.416;10.066;2023-09-07T08:46:20;20.50;99.90
31369;DHT22;18004;48.416;10.066;2023-09-07T08:48:47;20.30;99.90
31369;DHT22;18004;48.416;10.066;2023-09-07T08:51:18;20.50;99.90
31369;DHT22;18004;48.416;10.066;2023-09-07T08:53:45;20.60;99.90
31369;DHT22;18004;48.416;10.066;2023-09-07T08:56:18;20.90;99.90
31369;DHT22;18004;48.416;10.066;2023-09-07T08:58:46;21.00;99.90
31369;DHT22;18004;48.416;10.066;2023-09-07T09:01:15;21.10;99.90
31369;DHT22;18004;48.416;10.066;2023-09-07T09:03:42;21.00;99.90
31369;DHT22;18004;48.416;10.066;2023-09-07T09:06:09;20.80;99.90
31369;DHT22;18004;48.416;10.066;2023-09-07T09:08:50;20.90;99.90
31369;DHT22;18004;48.416;10.066;2023-09-07T09:11:18;21.10;99.90
31369;DHT22;18004;48.416;10.066;2023-09-07T09:13:45;21.00;99.90
31369;DHT22;18004;48.416;10.066;2023-09-07T09:16:11;21.00;99.90
31369;DHT22;18004;48.416;10.066;2023-09-07T09:18:47;20.80;99.90
31369;DHT22;18004;48.416;10.066;2023-09-07T09:21:14;20.70;99.90
31369;DHT22;18004;48.416;10.066;2023-09-07T09:23:41;21.00;99.90
31369;DHT22;18004;48.416;10.066;2023-09-07T09:26:07;21.10;99.90
31369;DHT22;18004;48.416;10.066;2023-09-07T09:28:34;21.10;99.90
31369;DHT22;18004;48.416;10.066;2023-09-07T09:31:01;21.10;99.90
31369;DHT22;18004;48.416;10.066;2023-09-07T09:33:31;21.10;99.90
31369;DHT22;18004;48.416;10.066;2023-09-07T09:35:57;21.30;99.90
31369;DHT22;18004;48.416;10.066;2023-09-07T09:38:23;21.50;99.90
31369;DHT22;18004;48.416;10.066;2023-09-07T09:40:51;21.60;99.90
31369;DHT22;18004;48.416;10.066;2023-09-07T09:43:20;21.60;99.90
31369;DHT22;18004;48.416;10.066;2023-09-07T09:45:48;21.70;99.90
31369;DHT22;18004;48.416;10.066;2023-09-07T09:48:16;21.60;99.90
31369;DHT22;18004;48.416;10.066;2023-09-07T09:50:45;21.60;99.90
31369;DHT22;18004;48.416;10.066;2023-09-07T09:53:12;21.60;99.90
31369;DHT22;18004;48.416;10.066;2023-09-07T09:55:41;21.80;99.90
31369;DHT22;18004;48.416;10.066;2023-09-07T09:58:07;22.00;99.90
31369;DHT22;18004;48.416;10.066;2023-09-07T10:00:33;22.40;99.90
31369;DHT22;18004;48.416;10.066;2023-09-07T10:03:09;22.50;99.90
31369;DHT22;18004;48.416;10.066;2023-09-07T10:05:43;22.20;99.90
31369;DHT22;18004;48.416;10.066;2023-09-07T10:08:12;22.20;99.90
31369;DHT22;18004;48.416;10.066;2023-09-07T10:10:40;22.40;99.90
31369;DHT22;18004;48.416;10.066;2023-09-07T10:13:06;22.60;99.90
31369;DHT22;18004;48.416;10.066;2023-09-07T10:15:32;22.90;99.20
31369;DHT22;18004;48.416;10.066;2023-09-07T10:18:15;23.10;97.60
31369;DHT22;18004;48.416;10.066;2023-09-07T10:20:55;23.20;92.60
31369;DHT22;18004;48.416;10.066;2023-09-07T10:23:23;23.10;94.90
31369;DHT22;18004;48.416;10.066;2023-09-07T10:25:59;23.30;95.50
31369;DHT22;18004;48.416;10.066;2023-09-07T10:28:25;23.30;96.00
31369;DHT22;18004;48.416;10.066;2023-09-07T10:31:02;23.10;95.80
31369;DHT22;18004;48.416;10.066;2023-09-07T10:33:33;22.80;97.50
31369;DHT22;18004;48.416;10.066;2023-09-07T10:35:59;22.90;98.80
31369;DHT22;18004;48.416;10.066;2023-09-07T10:38:25;22.90;97.50
31369;DHT22;18004;48.416;10.066;2023-09-07T10:40:58;22.80;98.90
31369;DHT22;18004;48.416;10.066;2023-09-07T10:43:33;23.00;98.90
31369;DHT22;18004;48.416;10.066;2023-09-07T10:46:00;23.20;98.10
31369;DHT22;18004;48.416;10.066;2023-09-07T10:48:29;23.20;95.70
31369;DHT22;18004;48.416;10.066;2023-09-07T10:50:55;23.10;97.60
31369;DHT22;18004;48.416;10.066;2023-09-07T10:53:30;23.20;96.40
31369;DHT22;18004;48.416;10.066;2023-09-07T10:56:03;23.20;96.40
31369;DHT22;18004;48.416;10.066;2023-09-07T10:58:33;23.40;96.70
31369;DHT22;18004;48.416;10.066;2023-09-07T11:01:00;23.40;94.90
31369;DHT22;18004;48.416;10.066;2023-09-07T11:03:27;23.40;97.00
31369;DHT22;18004;48.416;10.066;2023-09-07T11:08:30;23.60;95.70
31369;DHT22;18004;48.416;10.066;2023-09-07T11:10:56;23.70;96.20
31369;DHT22;18004;48.416;10.066;2023-09-07T11:13:25;23.80;94.50
31369;DHT22;18004;48.416;10.066;2023-09-07T11:15:56;24.10;94.30
31369;DHT22;18004;48.416;10.066;2023-09-07T11:18:23;24.50;88.30
31369;DHT22;18004;48.416;10.066;2023-09-07T11:20:50;24.20;88.40
31369;DHT22;18004;48.416;10.066;2023-09-07T11:23:20;23.90;93.10
31369;DHT22;18004;48.416;10.066;2023-09-07T11:25:49;24.20;92.10
31369;DHT22;18004;48.416;10.066;2023-09-07T11:28:17;24.10;92.80
31369;DHT22;18004;48.416;10.066;2023-09-07T11:30:54;24.10;91.80
31369;DHT22;18004;48.416;10.066;2023-09-07T11:33:21;24.00;92.80
31369;DHT22;18004;48.416;10.066;2023-09-07T11:35:47;23.90;94.90
31369;DHT22;18004;48.416;10.066;2023-09-07T11:38:15;24.10;92.90
31369;DHT22;18004;48.416;10.066;2023-09-07T11:40:41;24.30;91.20
31369;DHT22;18004;48.416;10.066;2023-09-07T11:43:11;24.30;91.40
31369;DHT22;18004;48.416;10.066;2023-09-07T11:45:39;24.50;91.20
31369;DHT22;18004;48.416;10.066;2023-09-07T11:48:05;24.60;92.30
31369;DHT22;18004;48.416;10.066;2023-09-07T11:50:31;24.60;90.80
31369;DHT22;18004;48.416;10.066;2023-09-07T11:52:57;24.70;89.30
31369;DHT22;18004;48.416;10.066;2023-09-07T11:55:23;24.60;90.10
31369;DHT22;18004;48.416;10.066;2023-09-07T11:57:49;24.80;90.20
31369;DHT22;18004;48.416;10.066;2023-09-07T12:00:15;24.70;86.30
31369;DHT22;18004;48.416;10.066;2023-09-07T12:02:41;24.60;87.90
31369;DHT22;18004;48.416;10.066;2023-09-07T12:05:09;24.80;90.70
31369;DHT22;18004;48.416;10.066;2023-09-07T12:07:40;24.80;90.20
31369;DHT22;18004;48.416;10.066;2023-09-07T12:10:06;24.80;87.40
31369;DHT22;18004;48.416;10.066;2023-09-07T12:12:36;24.70;90.30
31369;DHT22;18004;48.416;10.066;2023-09-07T12:15:03;24.70;88.30
31369;DHT22;18004;48.416;10.066;2023-09-07T12:17:31;24.80;90.20
31369;DHT22;18004;48.416;10.066;2023-09-07T12:19:57;24.90;88.30
31369;DHT22;18004;48.416;10.066;2023-09-07T12:22:22;25.00;85.10
31369;DHT22;18004;48.416;10.066;2023-09-07T12:24:49;25.20;82.10
31369;DHT22;18004;48.416;10.066;2023-09-07T12:27:15;25.00;82.90
31369;DHT22;18004;48.416;10.066;2023-09-07T12:29:41;25.20;84.60
31369;DHT22;18004;48.416;10.066;2023-09-07T12:32:07;25.30;82.10
31369;DHT22;18004;48.416;10.066;2023-09-07T12:34:33;25.40;79.50
31369;DHT22;18004;48.416;10.066;2023-09-07T12:36:59;25.40;77.10
31369;DHT22;18004;48.416;10.066;2023-09-07T12:39:25;25.50;77.40
31369;DHT22;18004;48.416;10.066;2023-09-07T12:41:51;25.70;71.60
31369;DHT22;18004;48.416;10.066;2023-09-07T12:44:16;25.60;70.00
31369;DHT22;18004;48.416;10.066;2023-09-07T12:46:44;25.50;70.00
31369;DHT22;18004;48.416;10.066;2023-09-07T12:49:10;25.40;69.90
31369;DHT22;18004;48.416;10.066;2023-09-07T12:51:36;25.60;70.20
31369;DHT22;18004;48.416;10.066;2023-09-07T12:54:01;25.60;67.10
31369;DHT22;18004;48.416;10.066;2023-09-07T12:56:28;25.60;65.90
31369;DHT22;18004;48.416;10.066;2023-09-07T12:58:54;25.60;65.50
31369;DHT22;18004;48.416;10.066;2023-09-07T13:01:22;25.70;67.50
31369;DHT22;18004;48.416;10.066;2023-09-07T13:03:48;26.10;62.70
31369;DHT22;18004;48.416;10.066;2023-09-07T13:06:14;26.20;62.70
31369;DHT22;18004;48.416;10.066;2023-09-07T13:08:40;26.00;60.90
31369;DHT22;18004;48.416;10.066;2023-09-07T13:11:05;25.90;63.50
31369;DHT22;18004;48.416;10.066;2023-09-07T13:13:31;26.10;62.10
31369;DHT22;18004;48.416;10.066;2023-09-07T13:15:57;26.30;59.90
31369;DHT22;18004;48.416;10.066;2023-09-07T13:18:24;26.00;58.60
31369;DHT22;18004;48.416;10.066;2023-09-07T13:20:50;26.00;59.30
31369;DHT22;18004;48.416;10.066;2023-09-07T13:23:19;25.90;59.80
31369;DHT22;18004;48.416;10.066;2023-09-07T13:25:44;25.80;61.70
31369;DHT22;18004;48.416;10.066;2023-09-07T13:28:10;25.90;58.80
31369;DHT22;18004;48.416;10.066;2023-09-07T13:30:36;25.90;59.30
31369;DHT22;18004;48.416;10.066;2023-09-07T13:33:02;26.30;57.60
31369;DHT22;18004;48.416;10.066;2023-09-07T13:35:27;26.50;54.20
31369;DHT22;18004;48.416;10.066;2023-09-07T13:37:54;26.50;50.90
31369;DHT22;18004;48.416;10.066;2023-09-07T13:40:20;26.70;49.50
31369;DHT22;18004;48.416;10.066;2023-09-07T13:42:49;26.70;46.30
31369;DHT22;18004;48.416;10.066;2023-09-07T13:45:15;26.80;46.40
31369;DHT22;18004;48.416;10.066;2023-09-07T13:47:41;26.80;44.80
31369;DHT22;18004;48.416;10.066;2023-09-07T13:50:07;26.70;44.10
31369;DHT22;18004;48.416;10.066;2023-09-07T13:52:33;26.70;45.00
31369;DHT22;18004;48.416;10.066;2023-09-07T13:54:58;26.50;47.20
31369;DHT22;18004;48.416;10.066;2023-09-07T13:57:24;26.40;46.10
31369;DHT22;18004;48.416;10.066;2023-09-07T13:59:50;26.40;52.30
31369;DHT22;18004;48.416;10.066;2023-09-07T14:02:16;26.60;52.50
31369;DHT22;18004;48.416;10.066;2023-09-07T14:04:41;26.60;51.30
31369;DHT22;18004;48.416;10.066;2023-09-07T14:07:07;26.50;48.30
31369;DHT22;18004;48.416;10.066;2023-09-07T14:09:33;26.30;49.80
31369;DHT22;18004;48.416;10.066;2023-09-07T14:11:59;26.40;46.10
31369;DHT22;18004;48.416;10.066;2023-09-07T14:14:25;26.40;47.00
31369;DHT22;18004;48.416;10.066;2023-09-07T14:16:51;26.40;49.20
31369;DHT22;18004;48.416;10.066;2023-09-07T14:19:22;26.40;47.90
31369;DHT22;18004;48.416;10.066;2023-09-07T14:21:48;26.50;46.50
31369;DHT22;18004;48.416;10.066;2023-09-07T14:24:13;26.50;47.50
31369;DHT22;18004;48.416;10.066;2023-09-07T14:26:39;26.50;46.00
31369;DHT22;18004;48.416;10.066;2023-09-07T14:29:05;26.40;43.50
31369;DHT22;18004;48.416;10.066;2023-09-07T14:31:30;26.30;46.00
31369;DHT22;18004;48.416;10.066;2023-09-07T14:33:56;26.30;42.40
31369;DHT22;18004;48.416;10.066;2023-09-07T14:36:22;26.40;45.10
31369;DHT22;18004;48.416;10.066;2023-09-07T14:38:48;26.60;43.20
31369;DHT22;18004;48.416;10.066;2023-09-07T14:41:13;26.70;40.00
31369;DHT22;18004;48.416;10.066;2023-09-07T14:43:46;26.70;40.10
31369;DHT22;18004;48.416;10.066;2023-09-07T14:46:12;26.60;38.80
31369;DHT22;18004;48.416;10.066;2023-09-07T14:48:37;26.70;36.30
31369;DHT22;18004;48.416;10.066;2023-09-07T14:51:03;26.50;35.60
31369;DHT22;18004;48.416;10.066;2023-09-07T14:53:29;26.40;33.50
31369;DHT22;18004;48.416;10.066;2023-09-07T14:55:56;26.40;33.90
31369;DHT22;18004;48.416;10.066;2023-09-07T14:58:22;26.50;33.10
31369;DHT22;18004;48.416;10.066;2023-09-07T15:00:47;26.40;32.60
31369;DHT22;18004;48.416;10.066;2023-09-07T15:03:13;26.30;33.50
31369;DHT22;18004;48.416;10.066;2023-09-07T15:05:39;26.40;30.80
31369;DHT22;18004;48.416;10.066;2023-09-07T15:08:05;26.50;29.90
31369;DHT22;18004;48.416;10.066;2023-09-07T15:10:32;26.50;29.70
31369;DHT22;18004;48.416;10.066;2023-09-07T15:13:00;26.40;29.40
31369;DHT22;18004;48.416;10.066;2023-09-07T15:15:29;26.40;30.20